Time;durP1;ratioP1;P1;durP2;ratioP2;P2;SDS_P1;SDS_P2;PMS_P1;PMS_P2;Temp;Humidity;BMP_temperature;BMP_pressure;BME280_temperature;BME280_humidity;BME280_pressure;Samples;Min_cycle;Max_cycle;Signal;HPM_P1;HPM_P2
2023/03/23 00:02:05;;;;;;;5.10;4.70;;;11.30;99.90;;;;;;5033144;28;20204;-47
2023/03/23 00:04:32;;;;;;;4.07;2.90;;;11.40;99.90;;;;;;5034285;28;20259;-48
2023/03/23 00:07:02;;;;;;;2.80;2.60;;;11.50;99.90;;;;;;5033201;28;20216;-46
2023/03/23 00:09:34;;;;;;;2.83;2.63;;;11.50;99.90;;;;;;5024743;28;20272;-47
2023/03/23 00:12:05;;;;;;;2.90;2.33;;;11.50;99.90;;;;;;5026416;28;20200;-47
2023/03/23 00:14:40;;;;;;;4.40;2.83;;;11.40;99.90;;;;;;5029664;28;20302;-47
2023/03/23 00:17:09;;;;;;;3.00;2.80;;;11.50;99.90;;;;;;5027282;28;20194;-48
2023/03/23 00:19:45;;;;;;;3.50;2.90;;;11.50;99.90;;;;;;5033821;28;20702;-46
2023/03/23 00:22:15;;;;;;;3.43;2.37;;;11.50;99.90;;;;;;5031576;28;20705;-48
2023/03/23 00:24:43;;;;;;;3.03;2.73;;;11.60;99.90;;;;;;5032998;28;20204;-46
2023/03/23 00:27:12;;;;;;;5.37;3.00;;;11.50;99.90;;;;;;5031966;28;22111;-47
2023/03/23 00:29:39;;;;;;;3.70;3.40;;;11.40;99.90;;;;;;5032298;28;20255;-46
2023/03/23 00:32:12;;;;;;;3.47;2.77;;;11.30;99.90;;;;;;5031170;28;20283;-47
2023/03/23 00:34:40;;;;;;;2.70;2.60;;;11.10;99.90;;;;;;5030400;28;20282;-49
2023/03/23 00:37:08;;;;;;;4.33;2.83;;;11.00;99.90;;;;;;5030383;28;20617;-47
2023/03/23 00:39:37;;;;;;;5.77;4.07;;;10.90;99.90;;;;;;5030979;28;20712;-48
2023/03/23 00:42:04;;;;;;;3.07;2.87;;;10.80;99.90;;;;;;5027466;28;20291;-48
2023/03/23 00:44:34;;;;;;;2.93;2.73;;;10.80;99.90;;;;;;5029851;28;20202;-47
2023/03/23 00:47:03;;;;;;;3.13;3.03;;;10.70;99.90;;;;;;5023923;28;20205;-47
2023/03/23 00:49:30;;;;;;;3.53;3.10;;;10.60;99.90;;;;;;5029578;28;20231;-48
2023/03/23 00:51:58;;;;;;;3.10;2.90;;;10.50;99.90;;;;;;5032862;28;20245;-47
2023/03/23 00:54:26;;;;;;;3.13;2.70;;;10.40;99.90;;;;;;5029758;28;20200;-47
2023/03/23 01:13:44;;;;;;;6.37;3.07;;;10.20;99.90;;;;;;5032333;28;20189;-47
2023/03/23 01:16:12;;;;;;;3.57;3.20;;;10.20;99.90;;;;;;5029176;28;20205;-47
2023/03/23 01:18:40;;;;;;;2.23;2.07;;;10.20;99.90;;;;;;5031688;28;20262;-47
2023/03/23 02:22:28;;;;;;;3.30;3.17;;;10.00;99.90;;;;;;5028504;28;20601;-47
2023/03/23 02:31:58;;;;;;;3.90;2.70;;;10.10;99.90;;;;;;5016856;28;20260;-46
2023/03/23 02:34:29;;;;;;;2.90;2.57;;;10.00;99.90;;;;;;5032108;28;20208;-47
2023/03/23 02:43:45;;;;;;;3.23;3.07;;;9.90;99.90;;;;;;5031280;28;20183;-48
2023/03/23 02:46:13;;;;;;;3.70;3.40;;;10.00;99.90;;;;;;5031880;28;20203;-46
2023/03/23 02:48:43;;;;;;;3.83;3.10;;;9.90;99.90;;;;;;5031617;28;20228;-47
2023/03/23 02:51:12;;;;;;;3.30;3.10;;;9.90;99.90;;;;;;5030322;28;20245;-48
2023/03/23 02:53:43;;;;;;;3.63;3.40;;;9.90;99.90;;;;;;5031724;28;20201;-48
2023/03/23 03:26:31;;;;;;;3.93;3.73;;;9.70;99.90;;;;;;5015229;28;20184;-47
2023/03/23 03:28:59;;;;;;;3.57;3.27;;;9.60;99.90;;;;;;5024609;28;20228;-47
2023/03/23 03:31:31;;;;;;;4.00;3.70;;;9.60;99.90;;;;;;5030758;28;20559;-46
2023/03/23 03:34:00;;;;;;;3.13;2.93;;;9.70;99.90;;;;;;5026658;28;20202;-47
2023/03/23 03:36:34;;;;;;;2.90;2.70;;;9.70;99.90;;;;;;5033935;28;20679;-48
2023/03/23 03:39:07;;;;;;;3.10;2.93;;;9.80;99.90;;;;;;5028904;28;20254;-47
2023/03/23 03:41:36;;;;;;;4.93;3.77;;;9.80;99.90;;;;;;5030841;28;20252;-47
2023/03/23 03:44:03;;;;;;;3.50;3.27;;;9.80;99.90;;;;;;5034374;28;20197;-46
2023/03/23 03:46:30;;;;;;;3.43;3.23;;;9.80;99.90;;;;;;5033989;28;20204;-47
2023/03/23 03:48:58;;;;;;;3.13;2.93;;;9.90;99.90;;;;;;5025185;28;20282;-47
2023/03/23 03:51:25;;;;;;;3.80;3.50;;;10.00;99.90;;;;;;5033039;28;20197;-48
2023/03/23 03:53:52;;;;;;;3.23;3.03;;;10.00;99.90;;;;;;5033287;28;20597;-47
2023/03/23 04:00:04;;;;;;;3.93;3.60;;;10.00;99.90;;;;;;5029532;28;20214;-46
2023/03/23 04:02:31;;;;;;;4.23;3.93;;;10.00;99.90;;;;;;5031596;28;20205;-47
2023/03/23 04:04:58;;;;;;;9.20;5.33;;;9.90;99.90;;;;;;5033955;28;20678;-47
2023/03/23 04:07:26;;;;;;;5.73;5.23;;;10.00;99.90;;;;;;5032109;28;20254;-47
2023/03/23 04:09:53;;;;;;;4.63;4.23;;;10.00;99.90;;;;;;5032297;28;20235;-46
2023/03/23 04:12:20;;;;;;;3.93;3.63;;;10.10;99.90;;;;;;5033619;28;20603;-48
2023/03/23 04:14:47;;;;;;;3.17;2.87;;;10.10;99.90;;;;;;5034122;28;20294;-47
2023/03/23 04:17:16;;;;;;;3.53;3.23;;;10.00;99.90;;;;;;5032393;28;20287;-45
2023/03/23 04:19:44;;;;;;;4.40;3.97;;;10.10;99.90;;;;;;5031244;28;20427;-48
2023/03/23 04:22:11;;;;;;;3.77;2.90;;;10.00;99.90;;;;;;5033481;28;20227;-46
2023/03/23 04:24:38;;;;;;;4.77;3.20;;;10.00;99.90;;;;;;5032793;28;20231;-47
2023/03/23 04:27:05;;;;;;;3.67;3.37;;;9.90;99.90;;;;;;5032549;28;20200;-47
2023/03/23 04:29:33;;;;;;;4.17;3.30;;;10.00;99.90;;;;;;5031615;28;20365;-47
2023/03/23 04:32:01;;;;;;;3.70;3.50;;;10.00;99.90;;;;;;5030309;28;20257;-47
2023/03/23 04:34:33;;;;;;;3.97;3.53;;;10.00;99.90;;;;;;5033874;28;20234;-47
2023/03/23 04:37:00;;;;;;;3.60;3.30;;;10.10;99.90;;;;;;5050616;28;20231;-48
2023/03/23 04:39:28;;;;;;;5.07;2.80;;;10.10;99.90;;;;;;5039412;28;20295;-46
2023/03/23 04:42:00;;;;;;;4.00;3.03;;;10.10;99.90;;;;;;5031443;28;20212;-48
2023/03/23 04:44:27;;;;;;;3.60;3.40;;;10.10;99.90;;;;;;5033214;28;20221;-47
2023/03/23 04:46:54;;;;;;;6.80;4.03;;;10.10;99.90;;;;;;5033189;28;20202;-47
2023/03/23 04:49:21;;;;;;;3.60;3.20;;;10.00;99.90;;;;;;5031728;28;20224;-47
2023/03/23 04:51:50;;;;;;;6.83;3.40;;;10.00;99.90;;;;;;5024203;28;20205;-49
2023/03/23 04:54:17;;;;;;;3.43;3.13;;;10.00;99.90;;;;;;5033529;28;20280;-49
2023/03/23 04:56:44;;;;;;;3.70;3.20;;;10.00;99.90;;;;;;5031959;28;20251;-46
2023/03/23 04:59:12;;;;;;;3.43;3.23;;;10.00;99.90;;;;;;5032466;28;20218;-47
2023/03/23 05:01:45;;;;;;;5.03;4.57;;;10.00;99.90;;;;;;5031424;28;20209;-47
2023/03/23 05:04:12;;;;;;;5.03;4.43;;;10.00;99.90;;;;;;5028081;28;20200;-47
2023/03/23 05:06:40;;;;;;;5.43;4.63;;;10.10;99.90;;;;;;5037613;28;20196;-47
2023/03/23 05:09:09;;;;;;;5.90;4.93;;;10.30;99.90;;;;;;5032395;28;20231;-46
2023/03/23 05:11:36;;;;;;;4.93;4.50;;;10.40;99.90;;;;;;5027599;28;20257;-47
2023/03/23 05:14:04;;;;;;;7.23;4.70;;;10.60;99.90;;;;;;5032396;28;20669;-48
2023/03/23 05:16:31;;;;;;;4.50;4.20;;;10.70;99.90;;;;;;5030905;28;20255;-46
2023/03/23 05:18:58;;;;;;;5.90;4.67;;;10.90;99.90;;;;;;5032244;28;20220;-47
2023/03/23 05:21:26;;;;;;;5.10;4.70;;;11.10;99.90;;;;;;5022794;28;20258;-48
2023/03/23 05:23:54;;;;;;;5.07;4.13;;;11.10;99.90;;;;;;5032195;28;20245;-46
2023/03/23 05:26:23;;;;;;;4.87;4.30;;;11.10;99.90;;;;;;5031431;28;20210;-48
2023/03/23 05:28:52;;;;;;;7.00;5.30;;;11.20;99.90;;;;;;5031057;28;20232;-47
2023/03/23 05:31:19;;;;;;;5.70;4.53;;;11.20;99.90;;;;;;5030706;28;20288;-47
2023/03/23 05:33:46;;;;;;;5.67;4.77;;;11.20;99.90;;;;;;5028189;28;20710;-47
2023/03/23 05:59:49;;;;;;;5.83;5.37;;;11.20;99.90;;;;;;5027275;28;20213;-48
2023/03/23 06:02:16;;;;;;;6.50;5.90;;;11.20;99.90;;;;;;5031281;28;20210;-46
2023/03/23 06:04:44;;;;;;;5.77;5.23;;;11.10;99.90;;;;;;5031572;28;20257;-46
2023/03/23 06:07:14;;;;;;;5.77;5.33;;;11.20;99.90;;;;;;5031665;28;20822;-47
2023/03/23 06:09:42;;;;;;;5.43;4.97;;;11.10;99.90;;;;;;5031535;28;20298;-48
2023/03/23 06:12:11;;;;;;;7.67;5.60;;;11.10;99.90;;;;;;5030409;28;20297;-47
2023/03/23 06:14:38;;;;;;;6.23;5.70;;;11.10;99.90;;;;;;5030167;28;20586;-46
2023/03/23 06:17:07;;;;;;;5.80;5.07;;;11.20;99.90;;;;;;5031930;28;20300;-48
2023/03/23 06:19:35;;;;;;;5.30;4.83;;;11.20;99.90;;;;;;5031538;28;20622;-46
2023/03/23 06:22:05;;;;;;;8.10;5.33;;;11.30;99.90;;;;;;5030312;28;20618;-47
2023/03/23 06:24:32;;;;;;;6.27;5.80;;;11.40;99.90;;;;;;5029845;28;20205;-46
2023/03/23 06:27:00;;;;;;;5.67;4.90;;;11.50;99.90;;;;;;5024186;28;20209;-46
2023/03/23 06:29:27;;;;;;;5.67;5.17;;;11.40;99.90;;;;;;5029029;28;20250;-46
2023/03/23 06:31:56;;;;;;;6.03;5.20;;;11.50;99.90;;;;;;5028466;28;20218;-47
2023/03/23 06:34:25;;;;;;;5.37;4.90;;;11.60;99.90;;;;;;5035411;28;20195;-47
2023/03/23 06:36:52;;;;;;;6.80;5.40;;;11.60;99.90;;;;;;5035228;28;20652;-47
2023/03/23 06:39:19;;;;;;;4.53;4.13;;;11.70;99.90;;;;;;5034973;28;20220;-47
2023/03/23 06:41:46;;;;;;;4.70;4.30;;;11.70;99.90;;;;;;5034582;28;20205;-48
2023/03/23 06:44:13;;;;;;;5.33;4.63;;;11.70;99.90;;;;;;5035365;28;20201;-47
2023/03/23 06:46:42;;;;;;;4.97;4.30;;;11.80;99.90;;;;;;5035275;28;20215;-47
2023/03/23 06:49:09;;;;;;;4.77;4.37;;;11.80;99.90;;;;;;5034882;28;20771;-47
2023/03/23 06:51:39;;;;;;;4.00;3.70;;;11.80;99.90;;;;;;5034547;28;20205;-48
2023/03/23 06:54:06;;;;;;;4.73;3.87;;;11.70;99.90;;;;;;5033359;28;20204;-47
2023/03/23 06:56:34;;;;;;;5.53;4.13;;;11.80;99.90;;;;;;5032952;28;20295;-48
2023/03/23 06:59:01;;;;;;;4.80;4.40;;;11.80;99.90;;;;;;5034806;28;20226;-49
2023/03/23 07:01:28;;;;;;;4.43;4.03;;;11.90;99.90;;;;;;5032835;28;20204;-47
2023/03/23 07:03:56;;;;;;;5.10;4.60;;;12.10;99.90;;;;;;5031764;28;20243;-47
2023/03/23 07:06:23;;;;;;;5.50;5.10;;;12.20;99.90;;;;;;5033074;28;20559;-48
2023/03/23 07:08:51;;;;;;;6.77;5.03;;;12.30;99.90;;;;;;5032770;28;20263;-47
2023/03/23 07:11:18;;;;;;;7.47;5.10;;;12.30;99.90;;;;;;5025568;28;20203;-47
2023/03/23 07:13:46;;;;;;;5.03;4.63;;;12.40;99.90;;;;;;5030379;28;20676;-47
2023/03/23 07:16:13;;;;;;;6.80;4.80;;;12.40;99.90;;;;;;5034655;28;20201;-54
2023/03/23 07:18:40;;;;;;;4.93;4.47;;;12.40;99.90;;;;;;5030551;28;20571;-47
2023/03/23 07:21:07;;;;;;;5.63;5.00;;;12.40;99.90;;;;;;5030585;28;20820;-47
2023/03/23 07:23:34;;;;;;;5.27;4.77;;;12.40;99.90;;;;;;5024283;28;20710;-46
2023/03/23 07:26:03;;;;;;;4.50;4.10;;;12.40;99.90;;;;;;5034396;28;20247;-47
2023/03/23 07:28:31;;;;;;;7.43;4.80;;;12.50;99.90;;;;;;5031127;28;20201;-48
2023/03/23 07:30:57;;;;;;;6.00;4.47;;;12.60;99.90;;;;;;5031428;28;20202;-46
2023/03/23 07:33:25;;;;;;;5.03;4.63;;;12.70;99.90;;;;;;5029249;28;20200;-47
2023/03/23 07:35:52;;;;;;;5.30;4.33;;;12.80;99.90;;;;;;5031901;28;20206;-47
2023/03/23 07:38:19;;;;;;;5.67;5.00;;;12.90;99.90;;;;;;5030453;28;20272;-47
2023/03/23 07:40:47;;;;;;;4.77;4.47;;;13.00;99.90;;;;;;5025292;28;20300;-48
2023/03/23 07:43:15;;;;;;;5.17;4.70;;;13.00;99.90;;;;;;5030154;28;20206;-47
2023/03/23 07:45:42;;;;;;;7.53;5.00;;;13.10;99.90;;;;;;5034212;28;20205;-46
2023/03/23 07:48:09;;;;;;;6.40;4.73;;;13.30;99.90;;;;;;5029226;28;20236;-48
2023/03/23 07:50:37;;;;;;;6.07;5.47;;;13.30;99.90;;;;;;5033785;28;20341;-47
2023/03/23 07:53:05;;;;;;;7.73;5.07;;;13.50;99.90;;;;;;5033841;28;20214;-47
2023/03/23 07:55:32;;;;;;;10.43;5.90;;;13.60;99.90;;;;;;5033829;28;20239;-47
2023/03/23 07:58:01;;;;;;;7.63;5.93;;;13.90;99.90;;;;;;5033877;28;20694;-49
2023/03/23 08:00:30;;;;;;;10.30;6.20;;;14.10;99.90;;;;;;5048684;28;20293;-47
2023/03/23 08:02:58;;;;;;;5.00;4.60;;;14.20;99.90;;;;;;5048892;28;20217;-48
2023/03/23 08:05:27;;;;;;;5.70;5.30;;;14.30;99.90;;;;;;5033772;28;20230;-46
2023/03/23 08:07:55;;;;;;;7.47;5.20;;;14.40;99.90;;;;;;5033604;28;20234;-47
2023/03/23 08:10:23;;;;;;;5.67;5.23;;;14.50;99.90;;;;;;5031380;28;20215;-47
2023/03/23 08:12:52;;;;;;;5.63;5.03;;;14.50;99.90;;;;;;5031619;28;20202;-47
2023/03/23 08:15:21;;;;;;;5.63;5.23;;;14.60;99.90;;;;;;5031305;28;20615;-47
2023/03/23 08:17:50;;;;;;;5.17;4.67;;;14.70;99.90;;;;;;5033648;28;20230;-47
2023/03/23 08:20:18;;;;;;;5.60;4.27;;;14.80;99.90;;;;;;5031558;28;20302;-47
2023/03/23 08:22:46;;;;;;;5.27;4.77;;;14.80;99.90;;;;;;5031722;28;20213;-47
2023/03/23 08:25:16;;;;;;;7.67;5.23;;;15.00;99.90;;;;;;5033104;28;20194;-48
2023/03/23 08:27:44;;;;;;;6.70;6.10;;;15.20;99.90;;;;;;5030996;28;20607;-47
2023/03/23 08:30:13;;;;;;;5.03;4.63;;;15.50;99.90;;;;;;5036807;28;20265;-47
2023/03/23 08:32:40;;;;;;;6.53;5.40;;;15.80;99.90;;;;;;5034081;28;20306;-48
2023/03/23 08:35:10;;;;;;;5.80;5.30;;;16.10;99.90;;;;;;5032943;28;20664;-47
2023/03/23 08:37:38;;;;;;;6.33;5.77;;;16.30;99.90;;;;;;5027692;28;20199;-47
2023/03/23 08:40:09;;;;;;;6.87;6.27;;;16.50;99.90;;;;;;5030563;28;20273;-47
2023/03/23 08:42:37;;;;;;;6.13;5.67;;;16.70;99.90;;;;;;5032355;28;20210;-48
2023/03/23 08:45:05;;;;;;;7.23;6.60;;;16.70;99.90;;;;;;5033016;28;20217;-48
2023/03/23 08:47:32;;;;;;;7.67;6.77;;;16.80;99.90;;;;;;5032773;28;20206;-47
2023/03/23 08:50:00;;;;;;;7.77;7.00;;;17.00;99.90;;;;;;5032628;28;20223;-47
2023/03/23 08:52:29;;;;;;;9.43;6.40;;;17.10;99.90;;;;;;5032005;28;20210;-47
2023/03/23 08:54:56;;;;;;;6.57;6.17;;;17.20;99.90;;;;;;5030357;28;20265;-47
2023/03/23 08:57:24;;;;;;;6.10;5.53;;;17.20;99.90;;;;;;5031927;28;20199;-47
2023/03/23 08:59:51;;;;;;;9.13;8.23;;;17.40;99.90;;;;;;5032399;28;20659;-47
2023/03/23 09:02:18;;;;;;;8.80;7.27;;;17.40;99.90;;;;;;5044523;28;20664;-47
2023/03/23 09:04:45;;;;;;;6.37;5.87;;;17.40;99.90;;;;;;5032947;28;20211;-47
2023/03/23 09:07:14;;;;;;;7.53;6.83;;;17.50;99.90;;;;;;5036593;28;20198;-48
2023/03/23 09:09:43;;;;;;;10.03;7.17;;;17.30;99.90;;;;;;5052468;28;20234;-48
2023/03/23 09:12:11;;;;;;;10.23;7.00;;;17.20;99.90;;;;;;5037527;28;20241;-48
2023/03/23 09:14:39;;;;;;;7.07;6.00;;;17.00;99.90;;;;;;5032323;28;20198;-47
2023/03/23 09:17:07;;;;;;;6.40;6.00;;;17.00;99.90;;;;;;5044658;28;20264;-49
2023/03/23 09:19:35;;;;;;;6.13;5.40;;;17.00;99.90;;;;;;5032107;28;20214;-47
2023/03/23 09:22:03;;;;;;;6.70;6.13;;;17.00;99.90;;;;;;5037923;28;20201;-48
2023/03/23 09:24:31;;;;;;;9.60;7.27;;;17.10;99.90;;;;;;5052178;28;20266;-47
2023/03/23 09:27:00;;;;;;;8.90;6.80;;;17.10;99.90;;;;;;5052274;28;20201;-47
2023/03/23 09:29:27;;;;;;;6.07;5.67;;;17.00;99.90;;;;;;5034945;28;20684;-46
2023/03/23 09:31:55;;;;;;;7.10;5.93;;;16.80;99.90;;;;;;5029835;28;20199;-48
2023/03/23 09:34:23;;;;;;;7.50;6.80;;;16.90;99.90;;;;;;5031755;28;20731;-48
2023/03/23 09:36:50;;;;;;;8.27;6.47;;;16.80;99.90;;;;;;5031157;28;20268;-47
2023/03/23 09:39:17;;;;;;;6.37;5.77;;;16.90;99.90;;;;;;5029071;28;20276;-47
2023/03/23 09:42:03;;;;;;;9.00;6.55;;;17.00;99.90;;;;;;5026097;28;20461;-47
2023/03/23 09:44:39;;;;;;;7.00;6.10;;;17.00;99.90;;;;;;5027990;28;20288;-48
2023/03/23 09:47:14;;;;;;;6.40;5.80;;;17.10;99.90;;;;;;5015665;28;20206;-47
2023/03/23 09:49:44;;;;;;;5.63;5.23;;;17.30;99.90;;;;;;5031378;28;20225;-47
2023/03/23 09:52:14;;;;;;;6.13;5.63;;;17.30;99.90;;;;;;5030023;28;20210;-47
2023/03/23 09:54:43;;;;;;;6.90;5.87;;;17.30;99.90;;;;;;5030116;28;20244;-47
2023/03/23 09:57:17;;;;;;;5.93;5.37;;;17.30;99.90;;;;;;5031447;28;20272;-48
2023/03/23 09:59:53;;;;;;;11.20;6.67;;;17.40;99.90;;;;;;5042116;28;20236;-47
2023/03/23 10:02:28;;;;;;;9.30;5.97;;;17.50;99.90;;;;;;5029433;28;20209;-46
2023/03/23 10:04:59;;;;;;;6.03;5.50;;;17.60;99.90;;;;;;5028863;28;20698;-46
2023/03/23 10:07:29;;;;;;;9.67;5.90;;;17.70;99.90;;;;;;5029207;28;20253;-47
2023/03/23 10:09:59;;;;;;;6.40;5.80;;;17.80;99.90;;;;;;5030736;28;20230;-48
2023/03/23 10:12:34;;;;;;;5.83;5.43;;;17.80;99.90;;;;;;5030351;28;20286;-48
2023/03/23 10:15:15;;;;;;;8.47;5.93;;;17.80;99.90;;;;;;5023457;28;20635;-48
2023/03/23 10:17:48;;;;;;;8.87;5.67;;;17.70;99.90;;;;;;5031468;28;20209;-47
2023/03/23 10:20:33;;;;;;;6.07;5.47;;;17.70;99.90;;;;;;5030566;28;20226;-47
2023/03/23 10:23:10;;;;;;;5.60;5.23;;;17.70;99.90;;;;;;5028282;28;20619;-47
2023/03/23 10:25:41;;;;;;;6.13;5.70;;;17.80;99.90;;;;;;5031212;28;20198;-47
2023/03/23 10:28:13;;;;;;;6.87;5.57;;;18.10;99.90;;;;;;5031384;28;20264;-47
2023/03/23 10:30:42;;;;;;;5.23;4.73;;;18.60;99.90;;;;;;5030485;28;20218;-48
2023/03/23 10:33:16;;;;;;;7.23;5.43;;;18.90;99.90;;;;;;5029143;28;20206;-47
2023/03/23 10:35:49;;;;;;;4.73;4.43;;;19.00;99.90;;;;;;5030362;28;20237;-47
2023/03/23 10:38:21;;;;;;;6.20;5.60;;;19.30;99.90;;;;;;5031140;28;20206;-47
2023/03/23 10:40:52;;;;;;;5.20;4.70;;;19.40;99.90;;;;;;5029717;28;20198;-47
2023/03/23 10:43:20;;;;;;;5.73;5.23;;;19.40;99.90;;;;;;5027840;28;20888;-47
2023/03/23 10:45:55;;;;;;;5.80;5.13;;;19.30;99.90;;;;;;5030421;28;20253;-47
2023/03/23 10:48:28;;;;;;;4.83;4.17;;;19.50;99.90;;;;;;5030257;28;20194;-47
2023/03/23 10:50:59;;;;;;;5.90;4.90;;;19.40;99.90;;;;;;5029841;28;20304;-46
2023/03/23 10:53:32;;;;;;;5.23;4.83;;;19.50;99.90;;;;;;5028676;28;20226;-47
2023/03/23 10:55:59;;;;;;;8.97;4.73;;;19.30;99.90;;;;;;5025128;28;20366;-47
2023/03/23 10:58:31;;;;;;;4.87;4.47;;;19.20;99.90;;;;;;5026595;28;20203;-46
2023/03/23 11:01:00;;;;;;;8.10;5.37;;;19.20;99.90;;;;;;5021983;28;20199;-47
2023/03/23 11:03:38;;;;;;;6.20;5.20;;;19.20;99.90;;;;;;5028755;28;20199;-47
2023/03/23 11:06:08;;;;;;;5.47;4.97;;;19.40;99.90;;;;;;5028490;28;20198;-46
2023/03/23 11:08:38;;;;;;;5.73;4.50;;;19.60;99.90;;;;;;5029188;28;20301;-47
2023/03/23 11:11:16;;;;;;;4.80;4.40;;;19.60;99.90;;;;;;5027238;28;20276;-47
2023/03/23 11:13:51;;;;;;;7.30;5.10;;;19.90;99.90;;;;;;5025639;28;20206;-47
2023/03/23 11:16:25;;;;;;;7.20;5.63;;;20.20;99.80;;;;;;5034883;28;20209;-47
2023/03/23 11:18:53;;;;;;;5.43;4.97;;;20.50;99.90;;;;;;5030610;28;20711;-47
2023/03/23 11:21:22;;;;;;;5.53;4.27;;;20.70;99.90;;;;;;5032886;28;20675;-46
2023/03/23 11:23:52;;;;;;;5.60;4.67;;;20.80;98.20;;;;;;5029954;28;20207;-47
2023/03/23 11:26:22;;;;;;;4.67;4.27;;;20.90;98.70;;;;;;5031329;28;20198;-48
2023/03/23 11:28:56;;;;;;;4.03;3.73;;;21.00;98.00;;;;;;5029986;28;20665;-50
2023/03/23 11:31:25;;;;;;;7.90;5.13;;;21.10;98.30;;;;;;5032977;28;20276;-47
2023/03/23 11:33:56;;;;;;;4.93;4.63;;;21.30;98.70;;;;;;5031565;28;20206;-50
2023/03/23 11:36:31;;;;;;;4.93;4.53;;;21.50;97.40;;;;;;5031811;28;20198;-49
2023/03/23 11:38:58;;;;;;;4.40;4.10;;;21.40;97.00;;;;;;5024928;28;20218;-49
2023/03/23 11:41:32;;;;;;;4.47;4.17;;;21.60;96.60;;;;;;5026018;28;20249;-49
2023/03/23 11:44:10;;;;;;;5.93;4.53;;;21.70;96.30;;;;;;5024259;28;20203;-50
2023/03/23 11:46:45;;;;;;;4.27;4.07;;;21.30;95.80;;;;;;5030197;28;20194;-47
2023/03/23 11:49:21;;;;;;;5.03;4.53;;;21.20;96.10;;;;;;5032462;28;20233;-49
2023/03/23 11:51:51;;;;;;;4.20;3.90;;;21.00;95.80;;;;;;5025050;28;20280;-49
2023/03/23 11:54:27;;;;;;;4.82;4.53;;;21.00;97.00;;;;;;5029358;28;20931;-48
2023/03/23 11:56:56;;;;;;;3.80;3.40;;;20.90;99.20;;;;;;5032923;28;20255;-49
2023/03/23 11:59:33;;;;;;;4.47;4.17;;;21.00;99.90;;;;;;5032650;28;20277;-49
2023/03/23 12:02:10;;;;;;;4.47;4.07;;;20.90;97.90;;;;;;5029426;28;20256;-50
2023/03/23 12:04:57;;;;;;;3.73;3.53;;;20.90;96.30;;;;;;5029490;28;20253;-49
2023/03/23 12:07:52;;;;;;;2.77;2.57;;;20.70;96.40;;;;;;5031806;28;20611;-48
2023/03/23 12:10:27;;;;;;;1.47;1.37;;;20.70;97.00;;;;;;5028337;28;20284;-47
2023/03/23 12:13:11;;;;;;;3.17;1.33;;;20.60;97.90;;;;;;5029674;28;20210;-48
2023/03/23 12:15:49;;;;;;;5.40;1.20;;;20.30;98.80;;;;;;5027134;28;20209;-49
2023/03/23 12:18:25;;;;;;;4.73;1.20;;;19.80;98.60;;;;;;5031224;28;20199;-47
2023/03/23 12:21:03;;;;;;;1.20;1.20;;;19.60;99.70;;;;;;5032091;28;20635;-48
2023/03/23 12:23:40;;;;;;;2.83;1.57;;;19.50;99.90;;;;;;5025337;28;20577;-48
2023/03/23 12:26:27;;;;;;;1.90;1.00;;;19.60;99.90;;;;;;5024039;28;20204;-48
2023/03/23 12:29:26;;;;;;;2.60;1.43;;;19.50;99.90;;;;;;5027180;28;20222;-47
2023/03/23 12:32:20;;;;;;;1.63;1.53;;;19.30;99.90;;;;;;5009948;28;20304;-46
2023/03/23 12:34:54;;;;;;;1.97;1.87;;;19.30;99.90;;;;;;5025869;28;21223;-47
2023/03/23 12:37:36;;;;;;;2.40;1.40;;;19.20;99.90;;;;;;5026743;28;20201;-48
2023/03/23 12:40:34;;;;;;;1.70;1.60;;;19.30;99.90;;;;;;5022178;28;20277;-46
2023/03/23 12:43:07;;;;;;;2.00;1.90;;;19.30;99.90;;;;;;5018041;28;20206;-47
2023/03/23 12:45:59;;;;;;;2.23;2.03;;;19.40;99.90;;;;;;5022289;28;20676;-47
2023/03/23 12:48:33;;;;;;;1.93;1.83;;;19.50;99.90;;;;;;5022525;28;20211;-48
2023/03/23 12:51:22;;;;;;;1.83;1.70;;;19.60;99.90;;;;;;5022208;28;20706;-47
2023/03/23 12:53:56;;;;;;;2.57;1.90;;;19.60;99.90;;;;;;5031741;28;20205;-48
2023/03/23 12:56:29;;;;;;;2.60;2.13;;;19.80;99.90;;;;;;5024131;28;20440;-48
2023/03/23 12:59:06;;;;;;;3.57;1.53;;;19.90;99.90;;;;;;5024237;28;20276;-48
2023/03/23 13:01:37;;;;;;;1.90;1.80;;;19.90;99.90;;;;;;5024439;28;20253;-47
2023/03/23 13:04:10;;;;;;;1.30;1.20;;;19.90;99.70;;;;;;5023512;28;20269;-48
2023/03/23 13:06:40;;;;;;;1.83;1.10;;;19.80;99.90;;;;;;5022021;28;20252;-47
2023/03/23 13:09:14;;;;;;;9.70;2.17;;;19.70;99.90;;;;;;5021652;28;20218;-48
2023/03/23 13:11:43;;;;;;;2.97;1.57;;;19.60;99.90;;;;;;5023066;28;20226;-48
2023/03/23 13:14:25;;;;;;;1.27;1.27;;;19.60;99.90;;;;;;5029652;28;20644;-47
2023/03/23 13:17:02;;;;;;;2.30;1.90;;;19.70;99.90;;;;;;5023574;28;20248;-47
2023/03/23 13:19:38;;;;;;;1.40;1.40;;;19.60;99.40;;;;;;5022012;28;20222;-46
2023/03/23 13:22:08;;;;;;;1.67;1.60;;;19.70;99.40;;;;;;5021006;28;20198;-47
2023/03/23 13:24:40;;;;;;;1.53;1.30;;;19.60;99.70;;;;;;5019724;28;20206;-47
2023/03/23 13:27:11;;;;;;;1.10;1.10;;;19.80;99.90;;;;;;5027998;28;20528;-47
2023/03/23 13:29:45;;;;;;;1.70;1.00;;;19.90;99.90;;;;;;5025810;28;20230;-48
2023/03/23 13:32:16;;;;;;;1.70;1.60;;;19.90;99.90;;;;;;5021039;28;20352;-47
2023/03/23 13:34:46;;;;;;;0.80;0.80;;;19.80;99.90;;;;;;5024059;28;20210;-47
2023/03/23 13:37:23;;;;;;;1.20;1.10;;;19.60;99.90;;;;;;5024370;28;20210;-48
2023/03/23 13:39:55;;;;;;;1.10;1.00;;;19.50;99.90;;;;;;5023717;28;20240;-49
2023/03/23 13:42:23;;;;;;;3.80;1.10;;;19.50;99.90;;;;;;5021498;28;20695;-49
2023/03/23 13:45:19;;;;;;;2.23;1.47;;;19.50;99.90;;;;;;5026686;28;20290;-47
2023/03/23 13:47:46;;;;;;;1.33;1.23;;;19.50;99.90;;;;;;5022178;28;20198;-46
2023/03/23 13:50:29;;;;;;;2.67;2.47;;;19.60;99.90;;;;;;5022455;28;20715;-47
2023/03/23 13:53:03;;;;;;;1.83;1.67;;;19.70;99.90;;;;;;5019833;28;20200;-46
2023/03/23 13:55:48;;;;;;;1.43;1.30;;;19.70;99.90;;;;;;5022834;28;20618;-48
2023/03/23 13:58:24;;;;;;;1.40;1.30;;;19.80;99.90;;;;;;5020937;28;20198;-47
2023/03/23 14:01:11;;;;;;;3.13;1.10;;;19.70;99.90;;;;;;5019152;28;20210;-47
2023/03/23 14:03:40;;;;;;;2.30;1.13;;;19.50;99.90;;;;;;5019046;28;20209;-47
2023/03/23 14:06:14;;;;;;;1.47;1.23;;;19.10;99.90;;;;;;5026988;28;20233;-46
2023/03/23 14:08:44;;;;;;;1.27;0.97;;;19.10;99.90;;;;;;5021291;28;20253;-47
2023/03/23 14:11:18;;;;;;;1.80;1.43;;;19.00;99.90;;;;;;5026151;28;20305;-48
2023/03/23 14:14:03;;;;;;;2.93;1.60;;;18.90;99.90;;;;;;5030388;28;20274;-48
2023/03/23 14:16:38;;;;;;;11.43;7.10;;;18.90;99.90;;;;;;5024916;28;20203;-47
2023/03/23 14:22:33;;;;;;;2.20;1.70;;;19.10;99.90;;;;;;5027593;28;20244;-48
2023/03/23 14:25:08;;;;;;;3.23;1.30;;;19.20;99.70;;;;;;5028160;28;20214;-47
2023/03/23 14:27:36;;;;;;;2.93;1.40;;;19.20;99.70;;;;;;5028529;28;20299;-48
2023/03/23 14:30:06;;;;;;;1.50;1.30;;;19.20;99.80;;;;;;5030014;28;20226;-47
2023/03/23 14:32:33;;;;;;;1.77;1.00;;;19.20;99.90;;;;;;5028065;28;20711;-47
2023/03/23 14:35:06;;;;;;;1.37;1.17;;;19.10;99.90;;;;;;5030177;28;20214;-47
2023/03/23 14:37:36;;;;;;;1.47;1.33;;;19.10;99.90;;;;;;5029720;28;20202;-48
2023/03/23 14:40:05;;;;;;;1.43;1.40;;;19.20;99.90;;;;;;5028428;28;20227;-47
2023/03/23 14:42:35;;;;;;;3.13;2.60;;;19.20;99.70;;;;;;5029888;28;20203;-48
2023/03/23 14:45:04;;;;;;;1.40;1.30;;;19.10;99.90;;;;;;5028921;28;20252;-48
2023/03/23 14:47:34;;;;;;;1.40;1.30;;;19.00;99.90;;;;;;5029528;28;20286;-48
2023/03/23 14:50:04;;;;;;;1.67;1.30;;;19.10;99.90;;;;;;5022757;28;20226;-48
2023/03/23 14:52:36;;;;;;;1.83;1.30;;;19.00;99.90;;;;;;5030660;28;20256;-48
2023/03/23 14:55:14;;;;;;;2.63;1.73;;;18.80;99.90;;;;;;5033806;28;20202;-47
2023/03/23 14:57:42;;;;;;;1.93;1.07;;;18.60;99.90;;;;;;5031377;28;20700;-48
2023/03/23 15:00:14;;;;;;;1.47;1.37;;;18.60;99.90;;;;;;5031699;28;20218;-46
2023/03/23 15:02:44;;;;;;;3.70;1.47;;;18.60;99.90;;;;;;5032720;28;20202;-47
2023/03/23 15:05:16;;;;;;;1.37;1.27;;;18.50;99.90;;;;;;5033604;28;20198;-48
2023/03/23 15:07:47;;;;;;;1.10;1.10;;;18.30;99.90;;;;;;5026749;28;20269;-47
2023/03/23 15:10:17;;;;;;;1.50;1.33;;;18.10;99.90;;;;;;5025458;28;20214;-46
2023/03/23 15:12:47;;;;;;;1.73;1.00;;;17.90;99.90;;;;;;5025622;28;20247;-48
2023/03/23 15:15:22;;;;;;;1.57;1.33;;;18.00;99.90;;;;;;5023974;28;20199;-47
2023/03/23 15:17:49;;;;;;;1.10;1.00;;;18.00;99.90;;;;;;5024568;28;20206;-48
2023/03/23 15:20:24;;;;;;;0.97;0.90;;;18.00;99.90;;;;;;5024828;28;20301;-47
2023/03/23 15:22:52;;;;;;;2.23;1.57;;;18.00;99.90;;;;;;5023661;28;20198;-48
2023/03/23 15:25:22;;;;;;;1.83;1.03;;;18.10;99.90;;;;;;5024740;28;20252;-46
2023/03/23 15:27:54;;;;;;;2.83;1.17;;;18.20;99.90;;;;;;5023868;28;20303;-47
2023/03/23 15:30:33;;;;;;;2.10;1.03;;;18.30;99.90;;;;;;5023545;28;20603;-47
2023/03/23 15:33:05;;;;;;;2.73;1.23;;;18.10;99.90;;;;;;5023707;28;20261;-48
2023/03/23 15:35:36;;;;;;;1.37;1.30;;;18.10;99.90;;;;;;5025009;28;20615;-47
2023/03/23 15:38:17;;;;;;;1.00;1.00;;;18.10;99.90;;;;;;5018672;28;20214;-48
2023/03/23 15:40:45;;;;;;;2.00;1.20;;;18.10;99.90;;;;;;5024390;28;20685;-47